createdAt,value
2019-05-16T00:01:38.161Z,87.70
2019-05-16T00:04:08.702Z,87.90
2019-05-16T00:06:39.541Z,87.50
2019-05-16T00:09:09.674Z,87.40
2019-05-16T00:11:39.804Z,87.60
2019-05-16T00:14:10.020Z,87.30
2019-05-16T00:16:40.112Z,87.80
2019-05-16T00:19:10.165Z,88.50
2019-05-16T00:21:40.399Z,88.90
2019-05-16T00:24:10.600Z,88.70
2019-05-16T00:26:40.746Z,89.40
2019-05-16T00:29:10.949Z,88.50
2019-05-16T00:31:41.213Z,89.50
2019-05-16T00:34:11.607Z,88.90
2019-05-16T00:36:41.658Z,89.00
2019-05-16T00:39:11.786Z,89.40
2019-05-16T00:41:41.910Z,89.50
2019-05-16T00:44:12.082Z,90.10
2019-05-16T00:46:42.206Z,90.00
2019-05-16T00:49:12.215Z,89.70
2019-05-16T00:51:42.322Z,89.40
2019-05-16T00:54:12.588Z,89.10
2019-05-16T00:56:44.760Z,89.40
2019-05-16T00:59:18.254Z,89.30
2019-05-16T01:01:50.035Z,89.20
2019-05-16T01:04:19.833Z,88.80
2019-05-16T01:06:49.813Z,89.60
2019-05-16T01:09:19.951Z,90.10
2019-05-16T01:11:50.178Z,89.70
2019-05-16T01:14:20.472Z,89.60
2019-05-16T01:16:50.599Z,89.80
2019-05-16T01:19:20.706Z,89.20
2019-05-16T01:21:50.931Z,89.40
2019-05-16T01:24:21.048Z,89.50
2019-05-16T01:26:51.532Z,88.90
2019-05-16T01:29:21.727Z,90.00
2019-05-16T01:31:51.747Z,90.20
2019-05-16T01:34:21.935Z,89.60
2019-05-16T01:36:52.156Z,89.20
2019-05-16T01:39:22.370Z,89.70
2019-05-16T01:41:52.607Z,89.20
2019-05-16T01:44:22.606Z,88.50
2019-05-16T01:46:52.741Z,88.60
2019-05-16T01:49:22.952Z,90.00
2019-05-16T01:51:53.177Z,89.10
2019-05-16T01:54:23.575Z,89.30
2019-05-16T01:56:53.707Z,89.20
2019-05-16T01:59:23.952Z,90.00
2019-05-16T02:01:54.093Z,90.10
2019-05-16T02:04:24.248Z,90.20
2019-05-16T02:06:55.022Z,90.80
2019-05-16T02:09:25.192Z,90.80
2019-05-16T02:11:55.385Z,90.50
2019-05-16T02:14:25.486Z,90.50
2019-05-16T02:16:57.899Z,90.50
2019-05-16T02:19:28.026Z,90.50
2019-05-16T02:21:59.786Z,90.50
2019-05-16T02:24:29.902Z,90.30
2019-05-16T02:27:00.083Z,90.30
2019-05-16T02:29:30.282Z,90.20
2019-05-16T02:32:01.986Z,90.60
2019-05-16T02:34:32.191Z,90.10
2019-05-16T02:37:18.224Z,90.00
2019-05-16T02:39:34.066Z,89.80
2019-05-16T02:42:04.249Z,89.30
2019-05-16T02:44:34.482Z,89.50
2019-05-16T02:47:05.722Z,90.20
2019-05-16T02:49:35.873Z,90.20
2019-05-16T02:52:05.883Z,90.30
2019-05-16T02:54:36.109Z,90.60
2019-05-16T02:57:06.248Z,90.80
2019-05-16T02:59:36.515Z,91.00
2019-05-16T03:02:06.706Z,91.00
2019-05-16T03:04:40.106Z,90.90
2019-05-16T03:07:13.526Z,90.60
2019-05-16T03:09:41.776Z,90.60
2019-05-16T03:12:11.971Z,90.40
2019-05-16T03:14:45.050Z,90.60
2019-05-16T03:17:21.222Z,91.10
2019-05-16T03:19:52.593Z,90.70
2019-05-16T03:22:24.730Z,90.80
2019-05-16T03:24:55.042Z,91.00
2019-05-16T03:27:25.160Z,91.20
2019-05-16T03:29:55.255Z,91.10
2019-05-16T03:32:25.399Z,91.00
2019-05-16T03:34:55.588Z,91.10
2019-05-16T03:37:25.716Z,91.00
2019-05-16T03:39:56.268Z,91.30
2019-05-16T03:42:26.354Z,91.60
2019-05-16T03:44:56.500Z,91.40
2019-05-16T03:47:26.566Z,91.50
2019-05-16T03:49:56.669Z,91.30
2019-05-16T03:52:26.866Z,90.80
2019-05-16T03:54:57.080Z,91.00
2019-05-16T03:57:30.662Z,91.10
2019-05-16T04:00:00.610Z,90.80
2019-05-16T04:02:31.297Z,91.10
2019-05-16T04:05:02.375Z,91.20
2019-05-16T04:07:32.566Z,91.60
2019-05-16T04:10:02.707Z,91.30
2019-05-16T04:12:32.798Z,91.40
2019-05-16T04:15:03.013Z,91.70
2019-05-16T04:17:33.065Z,92.10
2019-05-16T04:20:03.432Z,92.00
2019-05-16T04:22:33.482Z,92.10
2019-05-16T04:25:04.965Z,92.10
2019-05-16T04:27:35.192Z,92.20
2019-05-16T04:30:11.218Z,92.30
2019-05-16T04:32:41.819Z,92.30
2019-05-16T04:35:11.869Z,92.50
2019-05-16T04:37:42.743Z,92.40
2019-05-16T04:40:13.242Z,92.50
2019-05-16T04:42:43.368Z,92.90
2019-05-16T04:45:13.860Z,92.60
2019-05-16T04:47:44.008Z,92.70
2019-05-16T04:50:15.685Z,92.80
2019-05-16T04:52:46.772Z,92.70
2019-05-16T04:55:16.772Z,92.80
2019-05-16T04:57:46.965Z,92.80
2019-05-16T05:00:21.161Z,92.60
2019-05-16T05:02:51.824Z,92.60
2019-05-16T05:05:23.198Z,92.60
2019-05-16T05:07:53.270Z,92.20
2019-05-16T05:10:23.319Z,91.90
2019-05-16T05:12:53.480Z,91.20
2019-05-16T05:15:24.023Z,91.20
2019-05-16T05:17:54.153Z,90.90
2019-05-16T05:20:24.361Z,90.60
2019-05-16T05:22:54.408Z,89.90
2019-05-16T05:25:24.623Z,89.60
2019-05-16T05:27:55.648Z,89.70
2019-05-16T05:30:25.886Z,89.80
2019-05-16T05:32:55.946Z,89.30
2019-05-16T05:35:26.037Z,88.40
2019-05-16T05:37:56.249Z,87.30
2019-05-16T05:40:26.438Z,86.90
2019-05-16T05:42:59.742Z,86.70
2019-05-16T05:45:30.634Z,86.00
2019-05-16T05:48:01.845Z,86.90
2019-05-16T05:50:31.906Z,86.30
2019-05-16T05:53:02.058Z,85.50
2019-05-16T05:55:32.247Z,85.40
2019-05-16T05:58:03.324Z,83.80
2019-05-16T06:00:33.531Z,84.00
2019-05-16T06:03:03.735Z,85.60
2019-05-16T06:05:34.025Z,88.20
2019-05-16T06:08:04.154Z,87.30
2019-05-16T06:10:34.257Z,87.10
2019-05-16T06:13:04.312Z,87.70
2019-05-16T06:15:34.566Z,86.90
2019-05-16T06:18:04.712Z,87.30
2019-05-16T06:20:34.841Z,87.10
2019-05-16T06:23:05.076Z,86.70
2019-05-16T06:25:35.203Z,86.80
2019-05-16T06:28:05.272Z,85.60
2019-05-16T06:30:35.469Z,84.50
2019-05-16T06:33:05.758Z,84.10
2019-05-16T06:35:35.717Z,81.90
2019-05-16T06:38:05.791Z,82.40
2019-05-16T06:40:35.999Z,82.50
2019-05-16T06:43:06.234Z,82.70
2019-05-16T06:45:36.384Z,81.10
2019-05-16T06:48:06.696Z,79.80
2019-05-16T06:50:36.997Z,78.10
2019-05-16T06:53:07.288Z,78.50
2019-05-16T06:55:37.513Z,79.30
2019-05-16T06:58:10.603Z,77.30
2019-05-16T07:00:40.655Z,77.50
2019-05-16T07:03:12.607Z,77.30
2019-05-16T07:05:42.896Z,77.10
2019-05-16T07:08:13.059Z,76.80
2019-05-16T07:10:43.193Z,77.00
2019-05-16T07:13:13.347Z,75.90
2019-05-16T07:15:43.723Z,75.20
2019-05-16T07:18:13.932Z,74.60
2019-05-16T07:20:44.144Z,72.50
2019-05-16T07:23:14.261Z,75.60
2019-05-16T07:25:44.654Z,76.50
2019-05-16T07:28:14.958Z,75.80
2019-05-16T07:30:45.167Z,76.20
2019-05-16T07:33:15.396Z,75.00
2019-05-16T07:35:45.546Z,74.20
2019-05-16T07:38:15.742Z,75.20
2019-05-16T07:40:45.904Z,73.50
2019-05-16T07:43:16.050Z,72.90
2019-05-16T07:45:46.260Z,73.20
2019-05-16T07:48:16.326Z,72.50
2019-05-16T07:50:46.391Z,71.60
2019-05-16T07:53:16.862Z,71.40
2019-05-16T07:55:47.084Z,72.30
2019-05-16T07:58:17.155Z,72.60
2019-05-16T08:00:56.875Z,70.80
2019-05-16T08:03:19.966Z,70.80
2019-05-16T08:05:51.457Z,70.60
2019-05-16T08:08:24.379Z,70.60
2019-05-16T08:10:53.836Z,70.30
2019-05-16T08:13:24.730Z,69.20
2019-05-16T08:15:54.881Z,71.10
2019-05-16T08:18:24.953Z,70.50
2019-05-16T08:20:55.085Z,67.40
2019-05-16T08:23:25.164Z,67.50
2019-05-16T08:25:55.329Z,65.90
2019-05-16T08:28:25.530Z,67.70
2019-05-16T08:30:55.552Z,64.20
2019-05-16T08:33:25.614Z,65.70
2019-05-16T08:35:55.755Z,62.80
2019-05-16T08:38:25.825Z,65.10
2019-05-16T08:41:08.175Z,63.60
2019-05-16T08:43:27.867Z,60.40
2019-05-16T08:46:00.805Z,58.70
2019-05-16T08:48:31.795Z,58.00
2019-05-16T08:51:03.086Z,57.60
2019-05-16T08:53:34.177Z,57.50
2019-05-16T08:56:04.280Z,58.50
2019-05-16T08:58:34.455Z,57.80
2019-05-16T09:01:04.565Z,54.50
2019-05-16T09:03:34.828Z,55.60
2019-05-16T09:06:04.973Z,57.00
2019-05-16T09:08:35.110Z,57.00
2019-05-16T09:11:27.178Z,57.00
2019-05-16T09:13:37.203Z,55.50
2019-05-16T09:16:07.925Z,55.40
2019-05-16T09:18:45.389Z,56.30
2019-05-16T09:21:10.846Z,56.80
2019-05-16T09:23:40.978Z,56.50
2019-05-16T09:26:15.702Z,55.30
2019-05-16T09:28:42.877Z,56.80
2019-05-16T09:31:14.071Z,56.40
2019-05-16T09:33:44.149Z,56.80
2019-05-16T09:36:17.164Z,54.40
2019-05-16T09:38:48.479Z,52.70
2019-05-16T09:41:17.807Z,57.50
2019-05-16T09:43:48.944Z,56.10
2019-05-16T09:46:19.952Z,55.50
2019-05-16T09:48:50.066Z,54.60
2019-05-16T09:51:21.400Z,55.20
2019-05-16T09:53:51.698Z,53.30
2019-05-16T09:56:22.267Z,54.20
2019-05-16T09:58:52.326Z,54.50
2019-05-16T10:01:22.464Z,54.30
2019-05-16T10:03:52.600Z,55.00
2019-05-16T10:06:22.733Z,54.40
2019-05-16T10:08:53.178Z,54.70
2019-05-16T10:11:23.320Z,55.00
2019-05-16T10:13:53.389Z,56.40
2019-05-16T10:16:23.590Z,53.30
2019-05-16T10:18:53.731Z,53.70
2019-05-16T10:21:23.799Z,54.50
2019-05-16T10:23:53.866Z,53.80
2019-05-16T10:26:27.463Z,54.60
2019-05-16T10:28:57.813Z,53.00
2019-05-16T10:31:41.625Z,53.20
2019-05-16T10:33:59.844Z,54.30
2019-05-16T10:36:29.907Z,52.40
2019-05-16T10:39:00.129Z,51.60
2019-05-16T10:41:30.248Z,53.70
2019-05-16T10:44:00.385Z,53.30
2019-05-16T10:46:30.592Z,52.00
2019-05-16T10:49:00.566Z,51.80
2019-05-16T10:51:30.724Z,53.20
2019-05-16T10:54:09.518Z,52.50
2019-05-16T10:56:32.597Z,52.90
2019-05-16T10:59:37.777Z,51.60
2019-05-16T11:01:36.571Z,50.60
2019-05-16T11:04:07.508Z,50.80
2019-05-16T11:06:38.363Z,50.60
2019-05-16T11:09:08.499Z,49.30
2019-05-16T11:11:39.049Z,49.80
2019-05-16T11:14:09.464Z,52.40
2019-05-16T11:16:40.580Z,50.90
2019-05-16T11:19:17.309Z,50.10
2019-05-16T11:21:42.957Z,50.70
2019-05-16T11:24:13.572Z,51.00
2019-05-16T11:26:43.749Z,51.00
2019-05-16T11:29:13.880Z,51.40
2019-05-16T11:31:44.014Z,50.10
2019-05-16T11:34:17.172Z,50.20
2019-05-16T11:36:47.767Z,49.60
2019-05-16T11:39:18.205Z,51.40
2019-05-16T11:41:48.411Z,49.60
2019-05-16T11:44:18.882Z,48.40
2019-05-16T11:46:49.337Z,49.40
2019-05-16T11:49:19.613Z,48.00
2019-05-16T11:51:49.655Z,49.00
2019-05-16T11:54:20.165Z,49.10
2019-05-16T11:56:50.284Z,48.50
2019-05-16T11:59:20.370Z,47.30
2019-05-16T12:01:50.934Z,49.20
2019-05-16T12:04:21.475Z,47.10
2019-05-16T12:06:51.840Z,48.20
2019-05-16T12:09:22.127Z,48.50
2019-05-16T12:11:59.676Z,48.70
2019-05-16T12:14:24.004Z,47.20
2019-05-16T12:16:56.806Z,48.90
2019-05-16T12:19:33.358Z,47.60
2019-05-16T12:21:57.636Z,46.20
2019-05-16T12:24:36.374Z,45.70
2019-05-16T12:27:00.728Z,45.10
2019-05-16T12:29:31.034Z,45.60
2019-05-16T12:32:02.925Z,45.50
2019-05-16T12:34:32.841Z,46.90
2019-05-16T12:37:03.068Z,45.80
2019-05-16T12:39:33.098Z,45.10
2019-05-16T12:42:03.236Z,44.30
2019-05-16T12:44:33.365Z,43.40
2019-05-16T12:47:03.492Z,44.80
2019-05-16T12:49:33.850Z,44.70
2019-05-16T12:52:04.056Z,43.50
2019-05-16T12:54:36.845Z,44.20
2019-05-16T12:57:06.188Z,45.10
2019-05-16T12:59:36.852Z,43.30
2019-05-16T13:02:07.645Z,43.10
2019-05-16T13:04:37.918Z,43.30
2019-05-16T13:07:09.354Z,42.50
2019-05-16T13:09:41.165Z,42.20
2019-05-16T13:12:11.291Z,42.40
2019-05-16T13:14:41.475Z,44.00
2019-05-16T13:17:11.717Z,44.10
2019-05-16T13:19:44.042Z,43.20
2019-05-16T13:22:13.599Z,43.60
2019-05-16T13:24:43.733Z,42.90
2019-05-16T13:27:19.945Z,43.80
2019-05-16T13:29:47.663Z,41.60
2019-05-16T13:32:17.649Z,43.40
2019-05-16T13:34:47.768Z,41.10
2019-05-16T13:37:18.907Z,41.00
2019-05-16T13:39:49.038Z,41.00
2019-05-16T13:42:20.234Z,41.00
2019-05-16T13:44:51.594Z,40.80
2019-05-16T13:47:21.760Z,40.60
2019-05-16T13:49:51.958Z,42.90
2019-05-16T13:52:22.097Z,43.30
2019-05-16T13:54:52.145Z,43.40
2019-05-16T13:57:22.220Z,43.60
2019-05-16T13:59:52.345Z,42.10
2019-05-16T14:02:22.463Z,41.40
2019-05-16T14:04:52.618Z,43.40
2019-05-16T14:07:22.982Z,43.30
2019-05-16T14:09:53.140Z,43.70
2019-05-16T14:12:26.427Z,44.00
2019-05-16T14:14:55.960Z,43.20
2019-05-16T14:17:27.504Z,43.50
2019-05-16T14:19:57.815Z,44.10
2019-05-16T14:22:27.959Z,45.40
2019-05-16T14:24:58.073Z,45.20
2019-05-16T14:27:28.556Z,44.90
2019-05-16T14:29:58.619Z,43.80
2019-05-16T14:32:29.748Z,45.00
2019-05-16T14:34:59.879Z,45.00
2019-05-16T14:37:30.453Z,44.00
2019-05-16T14:40:01.732Z,46.00
2019-05-16T14:42:32.174Z,45.10
2019-05-16T14:45:11.210Z,45.30
2019-05-16T14:47:33.934Z,45.30
2019-05-16T14:50:11.523Z,46.00
2019-05-16T14:52:36.717Z,46.40
2019-05-16T14:55:07.467Z,46.10
2019-05-16T14:57:37.729Z,46.80
2019-05-16T15:00:08.586Z,46.10
2019-05-16T15:02:38.898Z,46.80
2019-05-16T15:05:09.784Z,47.30
2019-05-16T15:07:39.841Z,46.90
2019-05-16T15:10:10.058Z,46.60
2019-05-16T15:12:40.194Z,46.40
2019-05-16T15:15:24.255Z,48.30
2019-05-16T15:17:42.596Z,48.30
2019-05-16T15:20:13.185Z,49.50
2019-05-16T15:22:44.311Z,49.50
2019-05-16T15:25:17.262Z,48.70
2019-05-16T15:27:47.862Z,49.60
2019-05-16T15:30:18.631Z,49.00
2019-05-16T15:32:48.797Z,49.40
2019-05-16T15:35:19.488Z,50.00
2019-05-16T15:37:49.685Z,47.80
2019-05-16T15:40:20.075Z,48.80
2019-05-16T15:42:50.124Z,48.70
2019-05-16T15:45:35.774Z,49.70
2019-05-16T15:47:59.631Z,48.80
2019-05-16T15:50:28.131Z,49.30
2019-05-16T15:52:59.261Z,48.40
2019-05-16T15:55:29.901Z,49.50
2019-05-16T15:57:59.968Z,48.70
2019-05-16T16:00:41.432Z,48.90
2019-05-16T16:03:11.630Z,49.50
2019-05-16T16:05:41.751Z,50.30
2019-05-16T16:08:11.979Z,50.30
2019-05-16T16:10:43.200Z,49.30
2019-05-16T16:13:13.796Z,49.40
2019-05-16T16:15:51.405Z,50.20
2019-05-16T16:18:19.589Z,50.00
2019-05-16T16:20:47.886Z,49.80
2019-05-16T16:23:18.788Z,49.60
2019-05-16T16:25:50.973Z,50.00
2019-05-16T16:28:21.462Z,50.80
2019-05-16T16:30:51.657Z,50.40
2019-05-16T16:33:26.168Z,50.40
2019-05-16T16:35:53.388Z,50.00
2019-05-16T16:38:23.915Z,50.80
2019-05-16T16:40:57.099Z,51.50
2019-05-16T16:43:26.072Z,50.80
2019-05-16T16:46:06.033Z,50.50
2019-05-16T16:48:28.033Z,50.50
2019-05-16T16:50:58.173Z,51.90
2019-05-16T16:53:28.230Z,51.70
2019-05-16T16:55:58.435Z,51.70
2019-05-16T16:58:28.630Z,51.80
2019-05-16T17:01:01.435Z,51.80
2019-05-16T17:03:30.550Z,51.90
2019-05-16T17:06:00.602Z,52.00
2019-05-16T17:08:30.661Z,51.90
2019-05-16T17:11:00.754Z,51.80
2019-05-16T17:13:30.902Z,51.50
2019-05-16T17:16:01.109Z,52.20
2019-05-16T17:18:31.161Z,52.10
2019-05-16T17:21:01.369Z,52.50
2019-05-16T17:23:31.566Z,52.60
2019-05-16T17:26:01.567Z,52.00
2019-05-16T17:28:32.165Z,51.90
2019-05-16T17:31:02.743Z,52.10
2019-05-16T17:33:32.947Z,52.10
2019-05-16T17:36:03.157Z,52.00
2019-05-16T17:38:33.297Z,51.80
2019-05-16T17:41:03.707Z,51.90
2019-05-16T17:43:33.782Z,52.20
2019-05-16T17:46:04.062Z,52.80
2019-05-16T17:48:34.268Z,52.20
2019-05-16T17:51:04.684Z,53.60
2019-05-16T17:53:37.256Z,52.70
2019-05-16T17:56:07.014Z,52.30
2019-05-16T17:58:37.904Z,53.60
2019-05-16T18:01:09.381Z,53.30
2019-05-16T18:03:39.657Z,53.50
2019-05-16T18:06:09.800Z,53.30
2019-05-16T18:08:39.933Z,53.50
2019-05-16T18:11:10.143Z,53.90
2019-05-16T18:13:40.276Z,54.60
2019-05-16T18:16:10.389Z,54.50
2019-05-16T18:18:40.511Z,54.40
2019-05-16T18:21:10.809Z,54.70
2019-05-16T18:23:40.820Z,55.60
2019-05-16T18:26:11.019Z,55.80
2019-05-16T18:28:41.141Z,55.90
2019-05-16T18:31:11.269Z,55.50
2019-05-16T18:33:41.476Z,55.70
2019-05-16T18:36:11.725Z,55.50
2019-05-16T18:38:41.857Z,55.70
2019-05-16T18:41:11.932Z,56.20
2019-05-16T18:43:42.065Z,56.80
2019-05-16T18:46:12.205Z,57.50
2019-05-16T18:48:42.822Z,58.10
2019-05-16T18:51:12.954Z,58.20
2019-05-16T18:53:43.079Z,58.40
2019-05-16T18:56:13.292Z,58.60
2019-05-16T18:58:43.741Z,58.30
2019-05-16T19:01:13.931Z,58.70
2019-05-16T19:03:46.477Z,58.70
2019-05-16T19:06:17.029Z,59.30
2019-05-16T19:08:47.317Z,60.00
2019-05-16T19:11:17.621Z,61.10
2019-05-16T19:13:47.790Z,62.30
2019-05-16T19:16:17.915Z,63.40
2019-05-16T19:18:48.427Z,64.20
2019-05-16T19:21:18.613Z,65.30
2019-05-16T19:23:48.679Z,66.20
2019-05-16T19:26:20.397Z,67.10
2019-05-16T19:28:50.804Z,67.90
2019-05-16T19:31:20.920Z,68.60
2019-05-16T19:33:51.143Z,68.90
2019-05-16T19:36:21.287Z,69.30
2019-05-16T19:38:51.415Z,69.50
2019-05-16T19:41:21.558Z,69.50
2019-05-16T19:43:51.627Z,69.90
2019-05-16T19:46:23.681Z,69.80
2019-05-16T19:48:53.517Z,69.30
2019-05-16T19:51:23.740Z,69.20
2019-05-16T19:53:53.728Z,69.00
2019-05-16T19:56:23.857Z,68.10
2019-05-16T19:58:54.004Z,67.40
2019-05-16T20:01:24.083Z,66.90
2019-05-16T20:03:56.364Z,67.10
2019-05-16T20:06:27.473Z,66.80
2019-05-16T20:08:57.736Z,66.30
2019-05-16T20:11:27.967Z,66.00
2019-05-16T20:13:58.086Z,66.40
2019-05-16T20:16:28.690Z,64.80
2019-05-16T20:18:58.811Z,65.30
2019-05-16T20:21:29.235Z,64.60
2019-05-16T20:23:59.371Z,64.00
2019-05-16T20:26:29.871Z,64.60
2019-05-16T20:29:00.376Z,64.30
2019-05-16T20:31:30.941Z,64.00
2019-05-16T20:34:01.142Z,64.30
2019-05-16T20:36:31.626Z,64.70
2019-05-16T20:39:01.774Z,65.20
2019-05-16T20:41:33.715Z,65.40
2019-05-16T20:44:03.932Z,65.40
2019-05-16T20:46:34.049Z,65.80
2019-05-16T20:49:04.736Z,65.60
2019-05-16T20:51:34.946Z,65.50
2019-05-16T20:54:06.950Z,65.30
2019-05-16T20:56:37.829Z,65.00
2019-05-16T20:59:07.897Z,64.60
2019-05-16T21:01:38.080Z,63.80
2019-05-16T21:04:08.525Z,64.40
2019-05-16T21:06:39.047Z,65.20
2019-05-16T21:09:09.709Z,65.40
2019-05-16T21:11:39.776Z,65.70
2019-05-16T21:14:10.078Z,65.80
2019-05-16T21:16:40.376Z,65.50
2019-05-16T21:19:10.446Z,65.90
2019-05-16T21:21:40.657Z,66.40
2019-05-16T21:24:10.781Z,67.30
2019-05-16T21:26:40.914Z,66.40
2019-05-16T21:29:11.030Z,66.00
2019-05-16T21:31:41.112Z,66.00
2019-05-16T21:34:11.230Z,66.30
2019-05-16T21:36:41.425Z,66.30
2019-05-16T21:39:11.866Z,65.80
2019-05-16T21:41:41.874Z,64.50
2019-05-16T21:44:12.062Z,64.30
2019-05-16T21:46:42.472Z,64.50
2019-05-16T21:49:12.671Z,64.50
2019-05-16T21:51:43.906Z,64.10
2019-05-16T21:54:14.097Z,64.30
2019-05-16T21:56:46.328Z,63.50
2019-05-16T21:59:16.257Z,63.90
2019-05-16T22:01:47.406Z,64.00
2019-05-16T22:04:20.938Z,65.20
2019-05-16T22:06:51.062Z,66.20
2019-05-16T22:09:21.313Z,65.70
2019-05-16T22:11:51.486Z,65.00
2019-05-16T22:14:27.595Z,64.60
2019-05-16T22:16:57.876Z,65.80
2019-05-16T22:19:28.070Z,64.60
2019-05-16T22:21:58.505Z,63.80
2019-05-16T22:24:28.640Z,62.70
2019-05-16T22:26:58.705Z,61.90
2019-05-16T22:29:28.847Z,62.20
2019-05-16T22:31:58.829Z,63.30
2019-05-16T22:34:28.887Z,64.40
2019-05-16T22:36:59.024Z,65.00
2019-05-16T22:39:29.212Z,64.80
2019-05-16T22:41:59.341Z,64.80
2019-05-16T22:44:29.415Z,64.40
2019-05-16T22:46:59.549Z,64.40
2019-05-16T22:49:29.590Z,64.30
2019-05-16T22:52:00.009Z,64.40
2019-05-16T22:54:30.199Z,64.90
2019-05-16T22:57:00.400Z,62.70
2019-05-16T22:59:30.524Z,62.90
2019-05-16T23:02:00.811Z,63.80
2019-05-16T23:04:30.930Z,64.60
2019-05-16T23:07:00.998Z,63.80
2019-05-16T23:09:31.050Z,63.90
2019-05-16T23:12:01.758Z,64.10
2019-05-16T23:14:31.806Z,65.20
2019-05-16T23:17:03.516Z,65.10
2019-05-16T23:19:33.871Z,65.90
2019-05-16T23:22:04.098Z,67.10
2019-05-16T23:24:34.218Z,67.60
2019-05-16T23:27:06.744Z,68.20
2019-05-16T23:29:36.728Z,68.10
2019-05-16T23:32:07.537Z,68.40
2019-05-16T23:34:37.832Z,67.90
2019-05-16T23:37:07.916Z,68.10
2019-05-16T23:39:38.175Z,68.30
2019-05-16T23:42:08.298Z,68.00
2019-05-16T23:44:38.434Z,68.40
2019-05-16T23:47:08.536Z,68.50
2019-05-16T23:49:38.787Z,68.90
2019-05-16T23:52:09.168Z,68.70
2019-05-16T23:54:39.217Z,69.30
2019-05-16T23:57:09.412Z,69.20
2019-05-16T23:59:39.567Z,69.60
